Terminal Aerodrome Forecast
Issued by NWS

Home | Current Version | Previous Version | Text Only | Print | Product List | Glossary On
Versions: 1 2 3 4 5 6 7 8 9 10 11 12 13 14 15 16 17
000
FTUS46 KEKA 172325
TAFCEC
TAF
KCEC 172325Z 1800/1824 17010KT 6SM -SHRA SCT015 OVC040
     FM180600 10006KT P6SM BKN060
     FM182100 15016G22KT P6SM OVC050=

USA.gov is the U.S. government's official web portal to all federal, state and local government web resources and services.